sensor_id;sensor_type;location;lat;lon;timestamp;P1;durP1;ratioP1;P2;durP2;ratioP2
72761;SDS011;60886;55.034;73.150;2023-03-31T00:00:20;11.17;;;4.62;;
72761;SDS011;60886;55.034;73.150;2023-03-31T00:03:21;10.30;;;4.13;;
72761;SDS011;60886;55.034;73.150;2023-03-31T00:06:23;14.83;;;5.03;;
72761;SDS011;60886;55.034;73.150;2023-03-31T00:09:25;17.20;;;6.13;;
72761;SDS011;60886;55.034;73.150;2023-03-31T00:12:29;16.30;;;6.43;;
72761;SDS011;60886;55.034;73.150;2023-03-31T00:15:31;10.20;;;3.27;;
72761;SDS011;60886;55.034;73.150;2023-03-31T00:18:32;11.00;;;2.78;;
72761;SDS011;60886;55.034;73.150;2023-03-31T00:21:35;9.25;;;2.42;;
72761;SDS011;60886;55.034;73.150;2023-03-31T00:24:36;9.40;;;2.35;;
72761;SDS011;60886;55.034;73.150;2023-03-31T00:27:48;7.10;;;2.10;;
72761;SDS011;60886;55.034;73.150;2023-03-31T00:30:52;6.68;;;1.83;;
72761;SDS011;60886;55.034;73.150;2023-03-31T00:33:59;7.00;;;1.85;;
72761;SDS011;60886;55.034;73.150;2023-03-31T00:37:06;7.87;;;2.00;;
72761;SDS011;60886;55.034;73.150;2023-03-31T00:40:17;9.02;;;1.80;;
72761;SDS011;60886;55.034;73.150;2023-03-31T00:43:23;6.38;;;1.70;;
72761;SDS011;60886;55.034;73.150;2023-03-31T00:46:41;6.88;;;1.88;;
72761;SDS011;60886;55.034;73.150;2023-03-31T00:49:47;7.13;;;2.30;;
72761;SDS011;60886;55.034;73.150;2023-03-31T00:52:58;9.00;;;1.90;;
72761;SDS011;60886;55.034;73.150;2023-03-31T00:56:13;9.90;;;2.50;;
72761;SDS011;60886;55.034;73.150;2023-03-31T00:59:19;8.40;;;2.20;;
72761;SDS011;60886;55.034;73.150;2023-03-31T01:02:27;8.20;;;2.30;;
72761;SDS011;60886;55.034;73.150;2023-03-31T01:05:34;6.07;;;1.98;;
72761;SDS011;60886;55.034;73.150;2023-03-31T01:08:43;6.70;;;2.08;;
72761;SDS011;60886;55.034;73.150;2023-03-31T01:11:45;7.80;;;2.03;;
72761;SDS011;60886;55.034;73.150;2023-03-31T01:14:48;8.10;;;2.28;;
72761;SDS011;60886;55.034;73.150;2023-03-31T01:17:51;9.40;;;2.47;;
72761;SDS011;60886;55.034;73.150;2023-03-31T01:42:07;15.50;;;3.00;;
72761;SDS011;60886;55.034;73.150;2023-03-31T01:55:23;10.00;;;2.97;;
72761;SDS011;60886;55.034;73.150;2023-03-31T01:58:35;11.45;;;2.85;;
72761;SDS011;60886;55.034;73.150;2023-03-31T02:01:52;11.97;;;3.40;;
72761;SDS011;60886;55.034;73.150;2023-03-31T02:05:01;12.07;;;2.60;;
72761;SDS011;60886;55.034;73.150;2023-03-31T02:08:12;10.60;;;2.90;;
72761;SDS011;60886;55.034;73.150;2023-03-31T02:11:17;9.50;;;3.25;;
72761;SDS011;60886;55.034;73.150;2023-03-31T02:14:20;9.80;;;2.70;;
72761;SDS011;60886;55.034;73.150;2023-03-31T02:17:55;10.77;;;2.67;;
72761;SDS011;60886;55.034;73.150;2023-03-31T02:20:59;8.53;;;2.83;;
72761;SDS011;60886;55.034;73.150;2023-03-31T02:24:01;9.23;;;2.65;;
72761;SDS011;60886;55.034;73.150;2023-03-31T02:27:09;8.40;;;2.65;;
72761;SDS011;60886;55.034;73.150;2023-03-31T02:30:17;10.55;;;2.53;;
72761;SDS011;60886;55.034;73.150;2023-03-31T02:33:25;9.73;;;2.65;;
72761;SDS011;60886;55.034;73.150;2023-03-31T02:36:27;8.10;;;2.67;;
72761;SDS011;60886;55.034;73.150;2023-03-31T02:39:34;9.38;;;2.80;;
72761;SDS011;60886;55.034;73.150;2023-03-31T02:42:39;9.73;;;2.57;;
72761;SDS011;60886;55.034;73.150;2023-03-31T02:45:43;10.70;;;2.80;;
72761;SDS011;60886;55.034;73.150;2023-03-31T02:48:47;9.07;;;2.60;;
72761;SDS011;60886;55.034;73.150;2023-03-31T02:52:11;10.02;;;2.60;;
72761;SDS011;60886;55.034;73.150;2023-03-31T03:05:40;8.63;;;2.90;;
72761;SDS011;60886;55.034;73.150;2023-03-31T03:12:24;12.30;;;3.20;;
72761;SDS011;60886;55.034;73.150;2023-03-31T03:15:46;12.35;;;2.47;;
72761;SDS011;60886;55.034;73.150;2023-03-31T03:18:59;13.90;;;2.78;;
72761;SDS011;60886;55.034;73.150;2023-03-31T03:22:03;12.47;;;2.93;;
72761;SDS011;60886;55.034;73.150;2023-03-31T03:25:05;9.80;;;2.90;;
72761;SDS011;60886;55.034;73.150;2023-03-31T03:28:11;10.55;;;3.05;;
72761;SDS011;60886;55.034;73.150;2023-03-31T03:31:12;14.10;;;2.65;;
72761;SDS011;60886;55.034;73.150;2023-03-31T03:34:15;12.95;;;2.95;;
72761;SDS011;60886;55.034;73.150;2023-03-31T03:37:18;11.53;;;2.70;;
72761;SDS011;60886;55.034;73.150;2023-03-31T03:40:19;12.37;;;3.00;;
72761;SDS011;60886;55.034;73.150;2023-03-31T03:43:21;13.37;;;2.90;;
72761;SDS011;60886;55.034;73.150;2023-03-31T03:46:22;13.70;;;3.33;;
72761;SDS011;60886;55.034;73.150;2023-03-31T03:49:24;9.88;;;3.10;;
72761;SDS011;60886;55.034;73.150;2023-03-31T03:52:25;9.23;;;3.53;;
72761;SDS011;60886;55.034;73.150;2023-03-31T03:55:29;9.25;;;3.03;;
72761;SDS011;60886;55.034;73.150;2023-03-31T03:58:31;8.73;;;2.90;;
72761;SDS011;60886;55.034;73.150;2023-03-31T04:01:32;10.90;;;3.63;;
72761;SDS011;60886;55.034;73.150;2023-03-31T04:04:33;11.38;;;2.85;;
72761;SDS011;60886;55.034;73.150;2023-03-31T04:07:40;9.65;;;2.60;;
72761;SDS011;60886;55.034;73.150;2023-03-31T04:10:47;10.18;;;2.90;;
72761;SDS011;60886;55.034;73.150;2023-03-31T04:13:50;13.25;;;3.17;;
72761;SDS011;60886;55.034;73.150;2023-03-31T04:16:51;11.40;;;3.30;;
72761;SDS011;60886;55.034;73.150;2023-03-31T04:19:56;10.55;;;3.08;;
72761;SDS011;60886;55.034;73.150;2023-03-31T04:23:01;15.93;;;3.87;;
72761;SDS011;60886;55.034;73.150;2023-03-31T04:26:05;11.73;;;3.63;;
72761;SDS011;60886;55.034;73.150;2023-03-31T04:29:11;10.05;;;3.60;;
72761;SDS011;60886;55.034;73.150;2023-03-31T04:32:14;12.60;;;3.27;;
72761;SDS011;60886;55.034;73.150;2023-03-31T04:35:22;12.09;;;3.42;;
72761;SDS011;60886;55.034;73.150;2023-03-31T04:38:24;13.07;;;3.88;;
72761;SDS011;60886;55.034;73.150;2023-03-31T04:41:36;13.70;;;3.80;;
72761;SDS011;60886;55.034;73.150;2023-03-31T04:44:38;14.98;;;3.40;;
72761;SDS011;60886;55.034;73.150;2023-03-31T04:47:44;14.45;;;3.40;;
72761;SDS011;60886;55.034;73.150;2023-03-31T04:50:46;13.43;;;3.10;;
72761;SDS011;60886;55.034;73.150;2023-03-31T04:53:47;10.23;;;3.03;;
72761;SDS011;60886;55.034;73.150;2023-03-31T04:56:49;10.63;;;2.70;;
72761;SDS011;60886;55.034;73.150;2023-03-31T04:59:52;17.57;;;3.47;;
72761;SDS011;60886;55.034;73.150;2023-03-31T05:02:54;14.97;;;3.77;;
72761;SDS011;60886;55.034;73.150;2023-03-31T05:05:56;17.88;;;3.40;;
72761;SDS011;60886;55.034;73.150;2023-03-31T05:08:58;16.63;;;3.50;;
72761;SDS011;60886;55.034;73.150;2023-03-31T05:12:00;12.03;;;3.23;;
72761;SDS011;60886;55.034;73.150;2023-03-31T05:15:02;19.03;;;3.10;;
72761;SDS011;60886;55.034;73.150;2023-03-31T05:18:04;18.52;;;3.42;;
72761;SDS011;60886;55.034;73.150;2023-03-31T05:21:10;17.40;;;3.80;;
72761;SDS011;60886;55.034;73.150;2023-03-31T05:24:15;13.73;;;3.30;;
72761;SDS011;60886;55.034;73.150;2023-03-31T05:27:17;19.40;;;3.50;;
72761;SDS011;60886;55.034;73.150;2023-03-31T05:30:21;19.99;;;3.80;;
72761;SDS011;60886;55.034;73.150;2023-03-31T05:33:22;20.00;;;3.25;;
72761;SDS011;60886;55.034;73.150;2023-03-31T05:36:24;23.30;;;3.20;;
72761;SDS011;60886;55.034;73.150;2023-03-31T05:39:26;10.93;;;1.80;;
72761;SDS011;60886;55.034;73.150;2023-03-31T05:42:32;8.77;;;1.73;;
72761;SDS011;60886;55.034;73.150;2023-03-31T05:45:34;21.10;;;2.50;;
72761;SDS011;60886;55.034;73.150;2023-03-31T05:48:35;16.73;;;1.85;;
72761;SDS011;60886;55.034;73.150;2023-03-31T05:51:42;14.40;;;2.08;;
72761;SDS011;60886;55.034;73.150;2023-03-31T05:54:53;15.10;;;2.30;;
72761;SDS011;60886;55.034;73.150;2023-03-31T05:57:55;37.27;;;4.07;;
72761;SDS011;60886;55.034;73.150;2023-03-31T06:01:10;35.38;;;4.15;;
72761;SDS011;60886;55.034;73.150;2023-03-31T06:04:13;23.67;;;3.25;;
72761;SDS011;60886;55.034;73.150;2023-03-31T06:07:15;19.93;;;2.50;;
72761;SDS011;60886;55.034;73.150;2023-03-31T06:10:17;20.92;;;2.50;;
72761;SDS011;60886;55.034;73.150;2023-03-31T06:13:19;17.60;;;2.03;;
72761;SDS011;60886;55.034;73.150;2023-03-31T06:16:21;28.30;;;3.05;;
72761;SDS011;60886;55.034;73.150;2023-03-31T06:19:22;23.23;;;2.73;;
72761;SDS011;60886;55.034;73.150;2023-03-31T06:22:24;26.42;;;3.97;;
72761;SDS011;60886;55.034;73.150;2023-03-31T06:25:25;20.07;;;2.60;;
72761;SDS011;60886;55.034;73.150;2023-03-31T06:28:27;16.42;;;1.88;;
72761;SDS011;60886;55.034;73.150;2023-03-31T06:31:29;20.20;;;2.83;;
72761;SDS011;60886;55.034;73.150;2023-03-31T06:34:31;17.10;;;1.95;;
72761;SDS011;60886;55.034;73.150;2023-03-31T06:37:38;13.87;;;2.03;;
72761;SDS011;60886;55.034;73.150;2023-03-31T06:40:39;23.70;;;3.20;;
72761;SDS011;60886;55.034;73.150;2023-03-31T06:43:42;26.65;;;3.25;;
72761;SDS011;60886;55.034;73.150;2023-03-31T06:46:46;11.07;;;1.60;;
72761;SDS011;60886;55.034;73.150;2023-03-31T06:50:01;9.90;;;1.45;;
72761;SDS011;60886;55.034;73.150;2023-03-31T06:53:08;10.07;;;1.45;;
72761;SDS011;60886;55.034;73.150;2023-03-31T06:56:10;8.65;;;1.30;;
72761;SDS011;60886;55.034;73.150;2023-03-31T06:59:12;11.97;;;1.50;;
72761;SDS011;60886;55.034;73.150;2023-03-31T07:02:13;12.45;;;1.58;;
72761;SDS011;60886;55.034;73.150;2023-03-31T07:05:16;12.18;;;1.73;;
72761;SDS011;60886;55.034;73.150;2023-03-31T07:08:19;8.93;;;1.48;;
72761;SDS011;60886;55.034;73.150;2023-03-31T07:11:26;10.30;;;2.00;;
72761;SDS011;60886;55.034;73.150;2023-03-31T07:14:28;9.67;;;1.50;;
72761;SDS011;60886;55.034;73.150;2023-03-31T07:17:29;10.48;;;1.42;;
72761;SDS011;60886;55.034;73.150;2023-03-31T07:20:30;9.13;;;1.63;;
72761;SDS011;60886;55.034;73.150;2023-03-31T07:23:33;7.40;;;1.43;;
72761;SDS011;60886;55.034;73.150;2023-03-31T07:26:36;9.07;;;1.30;;
72761;SDS011;60886;55.034;73.150;2023-03-31T07:29:47;9.93;;;1.50;;
72761;SDS011;60886;55.034;73.150;2023-03-31T07:33:00;7.40;;;1.10;;
72761;SDS011;60886;55.034;73.150;2023-03-31T07:36:12;5.63;;;1.20;;
72761;SDS011;60886;55.034;73.150;2023-03-31T07:39:15;5.75;;;1.33;;
72761;SDS011;60886;55.034;73.150;2023-03-31T07:42:16;13.07;;;1.70;;
72761;SDS011;60886;55.034;73.150;2023-03-31T07:45:19;8.20;;;1.23;;
72761;SDS011;60886;55.034;73.150;2023-03-31T07:48:32;8.60;;;1.58;;
72761;SDS011;60886;55.034;73.150;2023-03-31T07:51:43;6.03;;;1.20;;
72761;SDS011;60886;55.034;73.150;2023-03-31T07:54:51;5.00;;;0.93;;
72761;SDS011;60886;55.034;73.150;2023-03-31T07:57:57;9.35;;;1.55;;
72761;SDS011;60886;55.034;73.150;2023-03-31T08:00:59;8.50;;;1.30;;
72761;SDS011;60886;55.034;73.150;2023-03-31T08:04:11;9.00;;;1.20;;
72761;SDS011;60886;55.034;73.150;2023-03-31T08:07:13;8.25;;;1.40;;
72761;SDS011;60886;55.034;73.150;2023-03-31T08:10:21;13.10;;;1.77;;
72761;SDS011;60886;55.034;73.150;2023-03-31T08:13:25;13.10;;;2.00;;
72761;SDS011;60886;55.034;73.150;2023-03-31T08:16:26;9.40;;;1.40;;
72761;SDS011;60886;55.034;73.150;2023-03-31T08:19:28;10.43;;;1.70;;
72761;SDS011;60886;55.034;73.150;2023-03-31T08:22:30;11.80;;;1.73;;
72761;SDS011;60886;55.034;73.150;2023-03-31T08:25:31;10.05;;;1.83;;
72761;SDS011;60886;55.034;73.150;2023-03-31T08:28:32;10.57;;;1.80;;
72761;SDS011;60886;55.034;73.150;2023-03-31T08:31:34;12.27;;;1.48;;
72761;SDS011;60886;55.034;73.150;2023-03-31T08:34:35;15.65;;;1.80;;
72761;SDS011;60886;55.034;73.150;2023-03-31T08:37:37;17.17;;;1.83;;
72761;SDS011;60886;55.034;73.150;2023-03-31T08:40:39;19.50;;;2.22;;
72761;SDS011;60886;55.034;73.150;2023-03-31T08:43:42;11.90;;;1.80;;
72761;SDS011;60886;55.034;73.150;2023-03-31T08:46:46;17.20;;;1.70;;
72761;SDS011;60886;55.034;73.150;2023-03-31T08:49:56;12.00;;;1.60;;
72761;SDS011;60886;55.034;73.150;2023-03-31T08:53:06;14.77;;;1.80;;
72761;SDS011;60886;55.034;73.150;2023-03-31T08:56:16;18.93;;;1.90;;
72761;SDS011;60886;55.034;73.150;2023-03-31T08:59:28;14.82;;;2.00;;
72761;SDS011;60886;55.034;73.150;2023-03-31T09:02:52;21.30;;;2.30;;
72761;SDS011;60886;55.034;73.150;2023-03-31T09:06:18;19.45;;;2.20;;
72761;SDS011;60886;55.034;73.150;2023-03-31T09:13:17;26.90;;;2.30;;
72761;SDS011;60886;55.034;73.150;2023-03-31T09:20:21;16.38;;;2.53;;
72761;SDS011;60886;55.034;73.150;2023-03-31T09:23:32;17.50;;;2.13;;
72761;SDS011;60886;55.034;73.150;2023-03-31T09:26:40;16.23;;;1.58;;
72761;SDS011;60886;55.034;73.150;2023-03-31T09:29:50;18.50;;;2.20;;
72761;SDS011;60886;55.034;73.150;2023-03-31T09:33:14;12.82;;;2.25;;
72761;SDS011;60886;55.034;73.150;2023-03-31T09:36:32;16.25;;;2.20;;
72761;SDS011;60886;55.034;73.150;2023-03-31T09:39:34;12.45;;;1.58;;
72761;SDS011;60886;55.034;73.150;2023-03-31T09:42:36;11.83;;;1.27;;
72761;SDS011;60886;55.034;73.150;2023-03-31T09:45:38;16.38;;;2.03;;
72761;SDS011;60886;55.034;73.150;2023-03-31T09:48:40;14.85;;;1.80;;
72761;SDS011;60886;55.034;73.150;2023-03-31T09:52:31;13.67;;;1.70;;
72761;SDS011;60886;55.034;73.150;2023-03-31T09:55:55;17.80;;;2.08;;
72761;SDS011;60886;55.034;73.150;2023-03-31T09:59:02;14.20;;;1.90;;
72761;SDS011;60886;55.034;73.150;2023-03-31T10:02:13;15.77;;;1.60;;
72761;SDS011;60886;55.034;73.150;2023-03-31T10:05:31;14.35;;;2.08;;
72761;SDS011;60886;55.034;73.150;2023-03-31T10:08:50;12.82;;;1.98;;
72761;SDS011;60886;55.034;73.150;2023-03-31T10:11:57;10.30;;;1.50;;
72761;SDS011;60886;55.034;73.150;2023-03-31T10:15:18;18.63;;;2.00;;
72761;SDS011;60886;55.034;73.150;2023-03-31T10:18:30;12.43;;;1.70;;
72761;SDS011;60886;55.034;73.150;2023-03-31T10:21:37;11.15;;;1.48;;
72761;SDS011;60886;55.034;73.150;2023-03-31T10:24:43;8.13;;;1.30;;
72761;SDS011;60886;55.034;73.150;2023-03-31T10:27:46;5.83;;;1.10;;
72761;SDS011;60886;55.034;73.150;2023-03-31T10:30:52;8.35;;;1.70;;
72761;SDS011;60886;55.034;73.150;2023-03-31T10:33:56;7.55;;;1.27;;
72761;SDS011;60886;55.034;73.150;2023-03-31T10:36:58;10.90;;;1.80;;
72761;SDS011;60886;55.034;73.150;2023-03-31T10:40:01;10.77;;;1.45;;
72761;SDS011;60886;55.034;73.150;2023-03-31T10:43:19;10.93;;;1.77;;
72761;SDS011;60886;55.034;73.150;2023-03-31T10:46:41;8.48;;;1.50;;
72761;SDS011;60886;55.034;73.150;2023-03-31T10:49:57;9.15;;;1.40;;
72761;SDS011;60886;55.034;73.150;2023-03-31T10:53:06;7.90;;;1.85;;
72761;SDS011;60886;55.034;73.150;2023-03-31T10:59:38;8.45;;;1.70;;
72761;SDS011;60886;55.034;73.150;2023-03-31T11:03:10;10.98;;;1.45;;
72761;SDS011;60886;55.034;73.150;2023-03-31T11:06:26;8.37;;;1.47;;
72761;SDS011;60886;55.034;73.150;2023-03-31T11:09:55;9.00;;;1.60;;
72761;SDS011;60886;55.034;73.150;2023-03-31T11:13:23;8.38;;;1.30;;
72761;SDS011;60886;55.034;73.150;2023-03-31T11:16:56;7.68;;;1.40;;
72761;SDS011;60886;55.034;73.150;2023-03-31T11:20:24;18.88;;;2.55;;
72761;SDS011;60886;55.034;73.150;2023-03-31T11:39:55;6.93;;;1.35;;
72761;SDS011;60886;55.034;73.150;2023-03-31T11:43:22;9.87;;;1.50;;
72761;SDS011;60886;55.034;73.150;2023-03-31T11:46:50;7.25;;;1.30;;
72761;SDS011;60886;55.034;73.150;2023-03-31T11:49:58;7.28;;;1.40;;
72761;SDS011;60886;55.034;73.150;2023-03-31T11:53:06;7.03;;;1.40;;
72761;SDS011;60886;55.034;73.150;2023-03-31T11:56:28;5.60;;;1.40;;
72761;SDS011;60886;55.034;73.150;2023-03-31T11:59:35;5.72;;;1.20;;
72761;SDS011;60886;55.034;73.150;2023-03-31T12:02:50;7.03;;;1.17;;
72761;SDS011;60886;55.034;73.150;2023-03-31T12:06:13;6.50;;;1.40;;
72761;SDS011;60886;55.034;73.150;2023-03-31T12:12:36;13.50;;;1.67;;
72761;SDS011;60886;55.034;73.150;2023-03-31T12:15:43;6.35;;;1.60;;
72761;SDS011;60886;55.034;73.150;2023-03-31T12:19:12;8.23;;;1.63;;
72761;SDS011;60886;55.034;73.150;2023-03-31T12:22:30;10.87;;;1.50;;
72761;SDS011;60886;55.034;73.150;2023-03-31T12:25:44;7.57;;;1.42;;
72761;SDS011;60886;55.034;73.150;2023-03-31T12:29:19;8.98;;;1.50;;
72761;SDS011;60886;55.034;73.150;2023-03-31T12:32:35;9.20;;;1.50;;
72761;SDS011;60886;55.034;73.150;2023-03-31T12:42:50;12.38;;;1.80;;
72761;SDS011;60886;55.034;73.150;2023-03-31T12:52:51;12.30;;;2.57;;
72761;SDS011;60886;55.034;73.150;2023-03-31T12:56:00;7.20;;;1.63;;
72761;SDS011;60886;55.034;73.150;2023-03-31T12:59:17;9.02;;;1.50;;
72761;SDS011;60886;55.034;73.150;2023-03-31T13:02:32;8.63;;;1.63;;
72761;SDS011;60886;55.034;73.150;2023-03-31T13:08:51;6.63;;;1.30;;
72761;SDS011;60886;55.034;73.150;2023-03-31T13:11:52;11.38;;;1.90;;
72761;SDS011;60886;55.034;73.150;2023-03-31T13:14:55;10.40;;;1.73;;
72761;SDS011;60886;55.034;73.150;2023-03-31T13:18:00;11.35;;;2.13;;
72761;SDS011;60886;55.034;73.150;2023-03-31T13:21:03;10.30;;;1.85;;
72761;SDS011;60886;55.034;73.150;2023-03-31T13:24:08;16.33;;;2.63;;
72761;SDS011;60886;55.034;73.150;2023-03-31T13:54:04;25.02;;;5.28;;
72761;SDS011;60886;55.034;73.150;2023-03-31T14:07:08;22.47;;;8.03;;
72761;SDS011;60886;55.034;73.150;2023-03-31T14:10:23;15.60;;;4.85;;
72761;SDS011;60886;55.034;73.150;2023-03-31T14:13:32;17.10;;;4.13;;
72761;SDS011;60886;55.034;73.150;2023-03-31T14:16:35;23.73;;;4.90;;
72761;SDS011;60886;55.034;73.150;2023-03-31T14:40:03;16.70;;;4.85;;
72761;SDS011;60886;55.034;73.150;2023-03-31T14:43:05;15.00;;;5.25;;
72761;SDS011;60886;55.034;73.150;2023-03-31T14:46:10;21.83;;;6.60;;
72761;SDS011;60886;55.034;73.150;2023-03-31T14:49:19;22.77;;;8.30;;
72761;SDS011;60886;55.034;73.150;2023-03-31T14:52:27;30.10;;;9.93;;
72761;SDS011;60886;55.034;73.150;2023-03-31T14:55:34;31.63;;;11.10;;
72761;SDS011;60886;55.034;73.150;2023-03-31T14:58:56;32.83;;;11.52;;
72761;SDS011;60886;55.034;73.150;2023-03-31T15:02:04;27.07;;;11.27;;
72761;SDS011;60886;55.034;73.150;2023-03-31T15:05:29;20.41;;;7.24;;
72761;SDS011;60886;55.034;73.150;2023-03-31T15:08:32;18.63;;;6.07;;
72761;SDS011;60886;55.034;73.150;2023-03-31T15:11:36;17.52;;;6.45;;
72761;SDS011;60886;55.034;73.150;2023-03-31T15:14:49;18.67;;;6.85;;
72761;SDS011;60886;55.034;73.150;2023-03-31T15:17:54;18.58;;;7.30;;
72761;SDS011;60886;55.034;73.150;2023-03-31T15:20:56;18.50;;;7.07;;
72761;SDS011;60886;55.034;73.150;2023-03-31T15:24:02;18.60;;;7.25;;
72761;SDS011;60886;55.034;73.150;2023-03-31T15:27:12;17.27;;;5.65;;
72761;SDS011;60886;55.034;73.150;2023-03-31T15:30:47;18.98;;;5.25;;
72761;SDS011;60886;55.034;73.150;2023-03-31T15:33:52;14.23;;;4.30;;
72761;SDS011;60886;55.034;73.150;2023-03-31T15:36:54;16.20;;;4.13;;
72761;SDS011;60886;55.034;73.150;2023-03-31T15:40:03;15.25;;;4.00;;
72761;SDS011;60886;55.034;73.150;2023-03-31T15:46:18;15.00;;;6.10;;
72761;SDS011;60886;55.034;73.150;2023-03-31T15:49:26;21.67;;;7.45;;
72761;SDS011;60886;55.034;73.150;2023-03-31T15:52:36;20.93;;;7.47;;
72761;SDS011;60886;55.034;73.150;2023-03-31T15:55:48;19.73;;;7.27;;
72761;SDS011;60886;55.034;73.150;2023-03-31T15:58:57;14.30;;;6.60;;
72761;SDS011;60886;55.034;73.150;2023-03-31T16:02:01;16.10;;;6.75;;
72761;SDS011;60886;55.034;73.150;2023-03-31T16:05:03;15.77;;;5.43;;
72761;SDS011;60886;55.034;73.150;2023-03-31T16:08:09;15.75;;;4.93;;
72761;SDS011;60886;55.034;73.150;2023-03-31T16:11:32;22.50;;;5.23;;
72761;SDS011;60886;55.034;73.150;2023-03-31T16:14:44;15.07;;;4.63;;
72761;SDS011;60886;55.034;73.150;2023-03-31T16:17:56;14.27;;;4.57;;
72761;SDS011;60886;55.034;73.150;2023-03-31T16:21:19;15.68;;;4.32;;
72761;SDS011;60886;55.034;73.150;2023-03-31T16:24:30;15.38;;;4.57;;
72761;SDS011;60886;55.034;73.150;2023-03-31T16:27:48;13.53;;;4.70;;
72761;SDS011;60886;55.034;73.150;2023-03-31T16:30:54;14.33;;;4.30;;
72761;SDS011;60886;55.034;73.150;2023-03-31T16:34:08;10.48;;;3.78;;
72761;SDS011;60886;55.034;73.150;2023-03-31T16:37:12;16.50;;;4.13;;
72761;SDS011;60886;55.034;73.150;2023-03-31T16:40:16;12.00;;;3.53;;
72761;SDS011;60886;55.034;73.150;2023-03-31T16:43:28;12.80;;;4.43;;
72761;SDS011;60886;55.034;73.150;2023-03-31T16:46:33;14.47;;;4.17;;
72761;SDS011;60886;55.034;73.150;2023-03-31T16:49:45;15.50;;;4.40;;
72761;SDS011;60886;55.034;73.150;2023-03-31T16:52:47;15.80;;;4.53;;
72761;SDS011;60886;55.034;73.150;2023-03-31T16:55:49;12.93;;;4.00;;
72761;SDS011;60886;55.034;73.150;2023-03-31T16:58:51;14.73;;;5.03;;
72761;SDS011;60886;55.034;73.150;2023-03-31T17:01:53;15.35;;;5.00;;
72761;SDS011;60886;55.034;73.150;2023-03-31T17:04:59;14.32;;;4.40;;
72761;SDS011;60886;55.034;73.150;2023-03-31T17:08:01;12.93;;;4.22;;
72761;SDS011;60886;55.034;73.150;2023-03-31T17:11:04;12.75;;;3.72;;
72761;SDS011;60886;55.034;73.150;2023-03-31T17:14:07;19.70;;;4.25;;
72761;SDS011;60886;55.034;73.150;2023-03-31T17:17:13;20.05;;;6.32;;
72761;SDS011;60886;55.034;73.150;2023-03-31T17:20:25;17.02;;;6.32;;
72761;SDS011;60886;55.034;73.150;2023-03-31T17:23:31;18.75;;;5.60;;
72761;SDS011;60886;55.034;73.150;2023-03-31T17:26:33;17.17;;;5.80;;
72761;SDS011;60886;55.034;73.150;2023-03-31T17:29:42;25.02;;;6.50;;
72761;SDS011;60886;55.034;73.150;2023-03-31T17:32:50;17.80;;;6.77;;
72761;SDS011;60886;55.034;73.150;2023-03-31T17:35:54;21.02;;;6.47;;
72761;SDS011;60886;55.034;73.150;2023-03-31T17:38:57;19.50;;;7.25;;
72761;SDS011;60886;55.034;73.150;2023-03-31T17:41:59;21.20;;;7.20;;
72761;SDS011;60886;55.034;73.150;2023-03-31T17:45:02;26.02;;;7.15;;
72761;SDS011;60886;55.034;73.150;2023-03-31T17:48:04;20.73;;;6.53;;
72761;SDS011;60886;55.034;73.150;2023-03-31T17:51:07;22.30;;;6.97;;
72761;SDS011;60886;55.034;73.150;2023-03-31T17:54:11;28.90;;;9.52;;
72761;SDS011;60886;55.034;73.150;2023-03-31T17:57:12;27.23;;;9.57;;
72761;SDS011;60886;55.034;73.150;2023-03-31T18:00:16;26.77;;;9.25;;
72761;SDS011;60886;55.034;73.150;2023-03-31T18:03:19;26.03;;;8.90;;
72761;SDS011;60886;55.034;73.150;2023-03-31T18:06:20;24.85;;;9.43;;
72761;SDS011;60886;55.034;73.150;2023-03-31T18:09:22;27.20;;;9.40;;
72761;SDS011;60886;55.034;73.150;2023-03-31T18:12:24;24.73;;;8.93;;
72761;SDS011;60886;55.034;73.150;2023-03-31T18:15:44;22.20;;;8.38;;
72761;SDS011;60886;55.034;73.150;2023-03-31T18:18:48;24.63;;;7.85;;
72761;SDS011;60886;55.034;73.150;2023-03-31T18:21:49;28.92;;;10.80;;
72761;SDS011;60886;55.034;73.150;2023-03-31T18:24:56;29.00;;;11.63;;
72761;SDS011;60886;55.034;73.150;2023-03-31T18:27:57;31.03;;;11.40;;
72761;SDS011;60886;55.034;73.150;2023-03-31T18:31:04;37.30;;;12.88;;
72761;SDS011;60886;55.034;73.150;2023-03-31T18:34:08;37.67;;;13.30;;
72761;SDS011;60886;55.034;73.150;2023-03-31T18:37:10;38.67;;;13.02;;
72761;SDS011;60886;55.034;73.150;2023-03-31T18:40:16;38.58;;;13.75;;
72761;SDS011;60886;55.034;73.150;2023-03-31T18:43:18;42.33;;;15.40;;
72761;SDS011;60886;55.034;73.150;2023-03-31T18:46:23;41.93;;;15.20;;
72761;SDS011;60886;55.034;73.150;2023-03-31T18:49:27;40.53;;;14.20;;
72761;SDS011;60886;55.034;73.150;2023-03-31T18:52:29;38.80;;;12.82;;
72761;SDS011;60886;55.034;73.150;2023-03-31T18:55:31;41.07;;;14.13;;
72761;SDS011;60886;55.034;73.150;2023-03-31T18:58:33;41.65;;;14.63;;
72761;SDS011;60886;55.034;73.150;2023-03-31T19:01:34;46.42;;;15.02;;
72761;SDS011;60886;55.034;73.150;2023-03-31T19:04:40;42.08;;;15.30;;
72761;SDS011;60886;55.034;73.150;2023-03-31T19:07:41;45.47;;;16.70;;
72761;SDS011;60886;55.034;73.150;2023-03-31T19:10:43;47.67;;;17.10;;
72761;SDS011;60886;55.034;73.150;2023-03-31T19:13:44;57.30;;;19.83;;
72761;SDS011;60886;55.034;73.150;2023-03-31T19:16:45;64.45;;;22.48;;
72761;SDS011;60886;55.034;73.150;2023-03-31T19:19:47;68.10;;;21.73;;
72761;SDS011;60886;55.034;73.150;2023-03-31T19:22:49;57.95;;;21.55;;
72761;SDS011;60886;55.034;73.150;2023-03-31T19:25:52;60.35;;;20.45;;
72761;SDS011;60886;55.034;73.150;2023-03-31T19:28:54;48.23;;;18.63;;
72761;SDS011;60886;55.034;73.150;2023-03-31T19:31:56;44.55;;;15.55;;
72761;SDS011;60886;55.034;73.150;2023-03-31T19:35:02;39.65;;;13.20;;
72761;SDS011;60886;55.034;73.150;2023-03-31T19:38:05;38.30;;;13.00;;
72761;SDS011;60886;55.034;73.150;2023-03-31T19:41:06;35.43;;;11.80;;
72761;SDS011;60886;55.034;73.150;2023-03-31T19:44:09;31.65;;;11.13;;
72761;SDS011;60886;55.034;73.150;2023-03-31T19:47:20;32.17;;;10.50;;
72761;SDS011;60886;55.034;73.150;2023-03-31T19:50:22;23.37;;;9.20;;
72761;SDS011;60886;55.034;73.150;2023-03-31T19:53:23;24.57;;;9.20;;
72761;SDS011;60886;55.034;73.150;2023-03-31T19:56:36;25.05;;;8.23;;
72761;SDS011;60886;55.034;73.150;2023-03-31T19:59:37;22.23;;;8.15;;
72761;SDS011;60886;55.034;73.150;2023-03-31T20:02:39;18.53;;;7.00;;
72761;SDS011;60886;55.034;73.150;2023-03-31T20:05:40;21.67;;;7.20;;
72761;SDS011;60886;55.034;73.150;2023-03-31T20:08:46;20.17;;;7.50;;
72761;SDS011;60886;55.034;73.150;2023-03-31T20:11:56;18.90;;;6.20;;
72761;SDS011;60886;55.034;73.150;2023-03-31T20:14:58;19.40;;;6.75;;
72761;SDS011;60886;55.034;73.150;2023-03-31T20:18:02;19.10;;;6.45;;
72761;SDS011;60886;55.034;73.150;2023-03-31T20:24:14;18.33;;;5.75;;
72761;SDS011;60886;55.034;73.150;2023-03-31T20:27:24;29.52;;;6.95;;
72761;SDS011;60886;55.034;73.150;2023-03-31T20:30:26;19.77;;;5.63;;
72761;SDS011;60886;55.034;73.150;2023-03-31T20:33:27;17.75;;;5.15;;
72761;SDS011;60886;55.034;73.150;2023-03-31T20:36:39;18.30;;;5.20;;
72761;SDS011;60886;55.034;73.150;2023-03-31T20:39:45;19.15;;;5.25;;
72761;SDS011;60886;55.034;73.150;2023-03-31T20:42:48;17.15;;;4.88;;
72761;SDS011;60886;55.034;73.150;2023-03-31T20:45:53;15.20;;;4.20;;
72761;SDS011;60886;55.034;73.150;2023-03-31T20:49:02;15.32;;;4.47;;
72761;SDS011;60886;55.034;73.150;2023-03-31T20:52:04;13.70;;;4.10;;